sensor_id;sensor_type;location;lat;lon;timestamp;pressure;altitude;pressure_sealevel;temperature;humidity
49297;BME280;35163;48.878;18.040;2022-12-18T00:01:13;99800.38;;;-2.27;65.84
49297;BME280;35163;48.878;18.040;2022-12-18T00:03:40;99804.56;;;-2.27;64.97
49297;BME280;35163;48.878;18.040;2022-12-18T00:06:08;99804.56;;;-2.27;65.88
49297;BME280;35163;48.878;18.040;2022-12-18T00:08:35;99800.38;;;-2.27;65.10
49297;BME280;35163;48.878;18.040;2022-12-18T00:11:11;99809.63;;;-2.27;65.09
49297;BME280;35163;48.878;18.040;2022-12-18T00:13:38;99817.16;;;-2.29;65.13
49297;BME280;35163;48.878;18.040;2022-12-18T00:16:09;99822.94;;;-2.32;64.86
49297;BME280;35163;48.878;18.040;2022-12-18T00:18:36;99822.94;;;-2.32;65.11
49297;BME280;35163;48.878;18.040;2022-12-18T00:21:06;99822.09;;;-2.32;65.04
49297;BME280;35163;48.878;18.040;2022-12-18T00:23:34;99824.56;;;-2.34;65.22
49297;BME280;35163;48.878;18.040;2022-12-18T00:26:05;99833.84;;;-2.34;64.96
49297;BME280;35163;48.878;18.040;2022-12-18T00:28:32;99832.19;;;-2.34;64.77
49297;BME280;35163;48.878;18.040;2022-12-18T00:31:03;99833.78;;;-2.36;64.47
49297;BME280;35163;48.878;18.040;2022-12-18T00:33:31;99840.50;;;-2.36;64.55
49297;BME280;35163;48.878;18.040;2022-12-18T00:36:06;99840.50;;;-2.36;64.29
49297;BME280;35163;48.878;18.040;2022-12-18T00:38:34;99838.78;;;-2.37;64.70
49297;BME280;35163;48.878;18.040;2022-12-18T00:41:01;99843.78;;;-2.39;64.22
49297;BME280;35163;48.878;18.040;2022-12-18T00:43:28;99849.69;;;-2.38;64.46
49297;BME280;35163;48.878;18.040;2022-12-18T00:45:54;99854.75;;;-2.38;64.73
49297;BME280;35163;48.878;18.040;2022-12-18T00:48:21;99848.03;;;-2.38;64.28
49297;BME280;35163;48.878;18.040;2022-12-18T00:50:49;99860.63;;;-2.39;64.56
49297;BME280;35163;48.878;18.040;2022-12-18T00:53:16;99861.44;;;-2.40;64.34
49297;BME280;35163;48.878;18.040;2022-12-18T00:55:43;99864.75;;;-2.41;63.94
49297;BME280;35163;48.878;18.040;2022-12-18T00:58:10;99863.81;;;-2.44;64.22
49297;BME280;35163;48.878;18.040;2022-12-18T01:00:37;99866.22;;;-2.47;64.10
49297;BME280;35163;48.878;18.040;2022-12-18T01:03:05;99866.16;;;-2.48;64.44
49297;BME280;35163;48.878;18.040;2022-12-18T01:05:32;99855.16;;;-2.49;64.20
49297;BME280;35163;48.878;18.040;2022-12-18T01:07:59;99866.91;;;-2.51;63.97
49297;BME280;35163;48.878;18.040;2022-12-18T01:10:26;99866.75;;;-2.54;63.93
49297;BME280;35163;48.878;18.040;2022-12-18T01:12:53;99864.94;;;-2.57;63.34
49297;BME280;35163;48.878;18.040;2022-12-18T01:15:20;99865.75;;;-2.58;63.95
49297;BME280;35163;48.878;18.040;2022-12-18T01:17:46;99864.06;;;-2.57;64.27
49297;BME280;35163;48.878;18.040;2022-12-18T01:20:13;99874.22;;;-2.57;64.16
49297;BME280;35163;48.878;18.040;2022-12-18T01:22:40;99870.66;;;-2.61;64.13
49297;BME280;35163;48.878;18.040;2022-12-18T01:25:07;99873.13;;;-2.62;64.74
49297;BME280;35163;48.878;18.040;2022-12-18T01:27:34;99879.06;;;-2.62;64.73
49297;BME280;35163;48.878;18.040;2022-12-18T01:30:00;99882.47;;;-2.61;64.75
49297;BME280;35163;48.878;18.040;2022-12-18T01:32:30;99882.47;;;-2.61;64.70
49297;BME280;35163;48.878;18.040;2022-12-18T01:34:57;99885.72;;;-2.64;63.83
49297;BME280;35163;48.878;18.040;2022-12-18T01:37:24;99884.94;;;-2.63;64.50
49297;BME280;35163;48.878;18.040;2022-12-18T01:39:52;99891.59;;;-2.65;64.19
49297;BME280;35163;48.878;18.040;2022-12-18T01:42:21;99888.19;;;-2.65;64.47
49297;BME280;35163;48.878;18.040;2022-12-18T01:45:04;99900.84;;;-2.65;64.24
49297;BME280;35163;48.878;18.040;2022-12-18T01:47:38;99900.84;;;-2.65;64.44
49297;BME280;35163;48.878;18.040;2022-12-18T01:52:40;99915.09;;;-2.67;64.33
49297;BME280;35163;48.878;18.040;2022-12-18T01:55:09;99916.88;;;-2.66;63.82
49297;BME280;35163;48.878;18.040;2022-12-18T01:57:39;99914.31;;;-2.66;63.88
49297;BME280;35163;48.878;18.040;2022-12-18T02:00:18;99915.09;;;-2.67;64.34
49297;BME280;35163;48.878;18.040;2022-12-18T02:02:46;99926.84;;;-2.70;63.82
49297;BME280;35163;48.878;18.040;2022-12-18T02:05:41;99919.16;;;-2.71;64.16
49297;BME280;35163;48.878;18.040;2022-12-18T02:13:22;99915.66;;;-2.75;64.69
49297;BME280;35163;48.878;18.040;2022-12-18T02:16:10;99917.38;;;-2.74;63.83
49297;BME280;35163;48.878;18.040;2022-12-18T02:18:46;99913.97;;;-2.74;64.61
49297;BME280;35163;48.878;18.040;2022-12-18T02:21:31;99918.19;;;-2.75;64.25
49297;BME280;35163;48.878;18.040;2022-12-18T02:26:55;99936.69;;;-2.76;63.73
49297;BME280;35163;48.878;18.040;2022-12-18T02:29:33;99926.53;;;-2.76;63.38
49297;BME280;35163;48.878;18.040;2022-12-18T02:32:05;99929.88;;;-2.77;63.99
49297;BME280;35163;48.878;18.040;2022-12-18T02:34:37;99940.72;;;-2.79;64.09
49297;BME280;35163;48.878;18.040;2022-12-18T02:37:08;99936.63;;;-2.77;63.84
49297;BME280;35163;48.878;18.040;2022-12-18T02:39:40;99946.66;;;-2.79;63.66
49297;BME280;35163;48.878;18.040;2022-12-18T02:42:08;99956.78;;;-2.79;63.75
49297;BME280;35163;48.878;18.040;2022-12-18T02:44:42;99968.66;;;-2.78;63.56
49297;BME280;35163;48.878;18.040;2022-12-18T02:47:12;99957.59;;;-2.80;63.86
49297;BME280;35163;48.878;18.040;2022-12-18T02:57:55;99969.31;;;-2.82;63.54
49297;BME280;35163;48.878;18.040;2022-12-18T03:00:28;99970.03;;;-2.85;63.84
49297;BME280;35163;48.878;18.040;2022-12-18T03:05:52;99973.22;;;-2.89;63.64
49297;BME280;35163;48.878;18.040;2022-12-18T03:08:27;99977.34;;;-2.91;63.60
49297;BME280;35163;48.878;18.040;2022-12-18T03:11:09;99990.69;;;-2.94;63.91
49297;BME280;35163;48.878;18.040;2022-12-18T03:16:12;99990.56;;;-2.97;64.07
49297;BME280;35163;48.878;18.040;2022-12-18T03:18:52;99982.97;;;-2.97;63.77
49297;BME280;35163;48.878;18.040;2022-12-18T03:21:28;99986.31;;;-2.98;64.12
49297;BME280;35163;48.878;18.040;2022-12-18T03:23:56;99972.53;;;-3.03;63.96
49297;BME280;35163;48.878;18.040;2022-12-18T03:26:25;99972.47;;;-3.05;63.78
49297;BME280;35163;48.878;18.040;2022-12-18T03:28:57;99983.22;;;-3.09;63.68
49297;BME280;35163;48.878;18.040;2022-12-18T03:31:28;99977.31;;;-3.09;64.03
49297;BME280;35163;48.878;18.040;2022-12-18T03:33:59;99972.09;;;-3.12;64.57
49297;BME280;35163;48.878;18.040;2022-12-18T03:36:30;99978.84;;;-3.13;64.40
49297;BME280;35163;48.878;18.040;2022-12-18T03:38:58;99981.28;;;-3.14;64.40
49297;BME280;35163;48.878;18.040;2022-12-18T03:46:58;99982.06;;;-3.15;64.33
49297;BME280;35163;48.878;18.040;2022-12-18T03:49:48;99992.13;;;-3.17;64.91
49297;BME280;35163;48.878;18.040;2022-12-18T03:52:24;100000.44;;;-3.20;64.00
49297;BME280;35163;48.878;18.040;2022-12-18T03:54:52;100002.09;;;-3.20;64.58
49297;BME280;35163;48.878;18.040;2022-12-18T03:57:23;100004.53;;;-3.22;64.59
49297;BME280;35163;48.878;18.040;2022-12-18T03:59:56;100007.78;;;-3.24;65.15
49297;BME280;35163;48.878;18.040;2022-12-18T04:02:24;100004.47;;;-3.23;64.87
49297;BME280;35163;48.878;18.040;2022-12-18T04:04:58;100006.94;;;-3.25;64.50
49297;BME280;35163;48.878;18.040;2022-12-18T04:07:26;100002.66;;;-3.26;64.69
49297;BME280;35163;48.878;18.040;2022-12-18T04:09:56;100004.31;;;-3.26;65.04
49297;BME280;35163;48.878;18.040;2022-12-18T04:12:25;100005.97;;;-3.27;65.17
49297;BME280;35163;48.878;18.040;2022-12-18T04:14:55;100006.59;;;-3.31;64.70
49297;BME280;35163;48.878;18.040;2022-12-18T04:17:22;100012.53;;;-3.31;64.94
49297;BME280;35163;48.878;18.040;2022-12-18T04:19:49;100020.94;;;-3.32;64.84
49297;BME280;35163;48.878;18.040;2022-12-18T04:22:15;100017.53;;;-3.32;64.78
49297;BME280;35163;48.878;18.040;2022-12-18T04:24:42;100027.56;;;-3.34;64.51
49297;BME280;35163;48.878;18.040;2022-12-18T04:27:09;100023.41;;;-3.33;64.68
49297;BME280;35163;48.878;18.040;2022-12-18T04:29:36;100033.50;;;-3.33;64.56
49297;BME280;35163;48.878;18.040;2022-12-18T04:32:02;100036.03;;;-3.33;64.24
49297;BME280;35163;48.878;18.040;2022-12-18T04:34:29;100032.63;;;-3.34;64.77
49297;BME280;35163;48.878;18.040;2022-12-18T04:36:56;100033.50;;;-3.33;64.28
49297;BME280;35163;48.878;18.040;2022-12-18T04:39:22;100039.34;;;-3.34;64.41
49297;BME280;35163;48.878;18.040;2022-12-18T04:41:50;100041.00;;;-3.35;63.84
49297;BME280;35163;48.878;18.040;2022-12-18T04:44:16;100044.34;;;-3.36;64.40
49297;BME280;35163;48.878;18.040;2022-12-18T04:46:43;100044.25;;;-3.37;64.02
49297;BME280;35163;48.878;18.040;2022-12-18T04:49:10;100040.06;;;-3.37;64.30
49297;BME280;35163;48.878;18.040;2022-12-18T04:51:37;100038.97;;;-3.42;64.37
49297;BME280;35163;48.878;18.040;2022-12-18T04:54:04;100040.53;;;-3.44;64.13
49297;BME280;35163;48.878;18.040;2022-12-18T04:56:31;100045.59;;;-3.44;64.02
49297;BME280;35163;48.878;18.040;2022-12-18T04:58:58;100046.41;;;-3.45;63.98
49297;BME280;35163;48.878;18.040;2022-12-18T05:01:24;100056.41;;;-3.47;64.17
49297;BME280;35163;48.878;18.040;2022-12-18T05:04:00;100056.09;;;-3.53;65.05
49297;BME280;35163;48.878;18.040;2022-12-18T05:06:26;100056.03;;;-3.55;64.53
49297;BME280;35163;48.878;18.040;2022-12-18T05:08:53;100047.56;;;-3.55;64.49
49297;BME280;35163;48.878;18.040;2022-12-18T05:11:20;100051.69;;;-3.57;64.47
49297;BME280;35163;48.878;18.040;2022-12-18T05:13:46;100060.13;;;-3.57;64.32
49297;BME280;35163;48.878;18.040;2022-12-18T05:16:14;100063.47;;;-3.58;64.23
49297;BME280;35163;48.878;18.040;2022-12-18T05:18:41;100068.28;;;-3.62;64.04
49297;BME280;35163;48.878;18.040;2022-12-18T05:21:08;100058.78;;;-3.67;63.91
49297;BME280;35163;48.878;18.040;2022-12-18T05:23:35;100064.66;;;-3.68;64.28
49297;BME280;35163;48.878;18.040;2022-12-18T05:26:04;100066.84;;;-3.74;63.93
49297;BME280;35163;48.878;18.040;2022-12-18T05:28:33;100072.78;;;-3.73;63.78
49297;BME280;35163;48.878;18.040;2022-12-18T05:31:02;100074.34;;;-3.75;64.03
49297;BME280;35163;48.878;18.040;2022-12-18T05:33:32;100075.84;;;-3.79;64.30
49297;BME280;35163;48.878;18.040;2022-12-18T05:36:01;100078.34;;;-3.79;64.20
49297;BME280;35163;48.878;18.040;2022-12-18T05:38:29;100085.72;;;-3.84;64.23
49297;BME280;35163;48.878;18.040;2022-12-18T05:40:56;100077.25;;;-3.84;64.00
49297;BME280;35163;48.878;18.040;2022-12-18T05:43:24;100077.88;;;-3.88;63.82
49297;BME280;35163;48.878;18.040;2022-12-18T05:45:52;100080.34;;;-3.90;64.37
49297;BME280;35163;48.878;18.040;2022-12-18T05:48:19;100071.88;;;-3.91;64.26
49297;BME280;35163;48.878;18.040;2022-12-18T05:50:47;100075.97;;;-3.93;63.70
49297;BME280;35163;48.878;18.040;2022-12-18T05:53:16;100083.38;;;-3.96;64.23
49297;BME280;35163;48.878;18.040;2022-12-18T05:55:44;100082.59;;;-3.95;64.19
49297;BME280;35163;48.878;18.040;2022-12-18T05:58:12;100085.03;;;-3.96;64.05
49297;BME280;35163;48.878;18.040;2022-12-18T06:00:44;100089.25;;;-3.97;64.51
49297;BME280;35163;48.878;18.040;2022-12-18T06:03:12;100095.88;;;-3.99;63.98
49297;BME280;35163;48.878;18.040;2022-12-18T06:05:42;100087.16;;;-4.04;63.86
49297;BME280;35163;48.878;18.040;2022-12-18T06:08:11;100091.19;;;-4.08;64.15
49297;BME280;35163;48.878;18.040;2022-12-18T06:10:38;100096.94;;;-4.10;63.85
49297;BME280;35163;48.878;18.040;2022-12-18T06:13:05;100095.19;;;-4.11;63.54
49297;BME280;35163;48.878;18.040;2022-12-18T06:15:32;100103.41;;;-4.16;62.97
49297;BME280;35163;48.878;18.040;2022-12-18T06:18:00;100108.25;;;-4.19;63.35
49297;BME280;35163;48.878;18.040;2022-12-18T06:20:27;100108.09;;;-4.22;63.51
49297;BME280;35163;48.878;18.040;2022-12-18T06:22:59;100122.41;;;-4.22;63.73
49297;BME280;35163;48.878;18.040;2022-12-18T06:25:26;100121.34;;;-4.26;63.84
49297;BME280;35163;48.878;18.040;2022-12-18T06:27:52;100130.59;;;-4.27;63.99
49297;BME280;35163;48.878;18.040;2022-12-18T06:30:19;100127.09;;;-4.29;63.85
49297;BME280;35163;48.878;18.040;2022-12-18T06:32:48;100136.44;;;-4.28;63.47
49297;BME280;35163;48.878;18.040;2022-12-18T06:35:22;100138.00;;;-4.30;63.87
49297;BME280;35163;48.878;18.040;2022-12-18T06:37:48;100136.00;;;-4.35;63.74
49297;BME280;35163;48.878;18.040;2022-12-18T06:40:16;100135.19;;;-4.34;64.19
49297;BME280;35163;48.878;18.040;2022-12-18T06:42:42;100127.53;;;-4.36;63.91
49297;BME280;35163;48.878;18.040;2022-12-18T06:45:09;100127.44;;;-4.37;63.75
49297;BME280;35163;48.878;18.040;2022-12-18T06:47:36;100127.44;;;-4.37;63.78
49297;BME280;35163;48.878;18.040;2022-12-18T06:50:03;100134.84;;;-4.41;63.59
49297;BME280;35163;48.878;18.040;2022-12-18T06:52:31;100140.88;;;-4.39;63.46
49297;BME280;35163;48.878;18.040;2022-12-18T06:54:58;100148.44;;;-4.39;63.63
49297;BME280;35163;48.878;18.040;2022-12-18T06:57:25;100144.00;;;-4.43;63.68
49297;BME280;35163;48.878;18.040;2022-12-18T06:59:52;100145.75;;;-4.42;63.76
49297;BME280;35163;48.878;18.040;2022-12-18T07:02:18;100156.63;;;-4.43;63.47
49297;BME280;35163;48.878;18.040;2022-12-18T07:04:45;100165.06;;;-4.42;63.40
49297;BME280;35163;48.878;18.040;2022-12-18T07:07:12;100171.00;;;-4.42;63.46
49297;BME280;35163;48.878;18.040;2022-12-18T07:09:38;100168.47;;;-4.42;63.49
49297;BME280;35163;48.878;18.040;2022-12-18T07:12:05;100174.50;;;-4.40;63.35
49297;BME280;35163;48.878;18.040;2022-12-18T07:14:33;100180.31;;;-4.41;63.56
49297;BME280;35163;48.878;18.040;2022-12-18T07:16:59;100181.19;;;-4.40;63.73
49297;BME280;35163;48.878;18.040;2022-12-18T07:19:26;100192.19;;;-4.40;64.01
49297;BME280;35163;48.878;18.040;2022-12-18T07:21:54;100198.09;;;-4.39;63.66
49297;BME280;35163;48.878;18.040;2022-12-18T07:24:21;100203.94;;;-4.40;63.68
49297;BME280;35163;48.878;18.040;2022-12-18T07:26:47;100206.47;;;-4.40;64.32
49297;BME280;35163;48.878;18.040;2022-12-18T07:29:14;100208.19;;;-4.39;63.91
49297;BME280;35163;48.878;18.040;2022-12-18T07:31:41;100218.38;;;-4.37;63.77
49297;BME280;35163;48.878;18.040;2022-12-18T07:34:12;100219.19;;;-4.39;64.00
49297;BME280;35163;48.878;18.040;2022-12-18T07:36:39;100220.06;;;-4.38;63.64
49297;BME280;35163;48.878;18.040;2022-12-18T07:39:05;100229.38;;;-4.37;63.31
49297;BME280;35163;48.878;18.040;2022-12-18T07:41:32;100226.94;;;-4.35;63.68
49297;BME280;35163;48.878;18.040;2022-12-18T07:43:58;100233.63;;;-4.36;63.74
49297;BME280;35163;48.878;18.040;2022-12-18T07:46:25;100235.47;;;-4.33;63.97
49297;BME280;35163;48.878;18.040;2022-12-18T07:48:52;100232.16;;;-4.32;63.74
49297;BME280;35163;48.878;18.040;2022-12-18T07:51:18;100229.63;;;-4.32;63.93
49297;BME280;35163;48.878;18.040;2022-12-18T07:53:46;100240.69;;;-4.30;63.98
49297;BME280;35163;48.878;18.040;2022-12-18T07:56:18;100238.34;;;-4.27;63.85
49297;BME280;35163;48.878;18.040;2022-12-18T07:58:54;100244.38;;;-4.25;63.77
49297;BME280;35163;48.878;18.040;2022-12-18T08:01:24;100249.59;;;-4.22;63.92
49297;BME280;35163;48.878;18.040;2022-12-18T08:03:52;100252.28;;;-4.19;63.72
49297;BME280;35163;48.878;18.040;2022-12-18T08:06:19;100244.03;;;-4.16;64.07
49297;BME280;35163;48.878;18.040;2022-12-18T08:08:51;100246.63;;;-4.15;63.88
49297;BME280;35163;48.878;18.040;2022-12-18T08:11:17;100263.63;;;-4.12;63.84
49297;BME280;35163;48.878;18.040;2022-12-18T08:13:46;100264.59;;;-4.10;63.47
49297;BME280;35163;48.878;18.040;2022-12-18T08:16:14;100262.16;;;-4.08;63.33
49297;BME280;35163;48.878;18.040;2022-12-18T08:18:41;100255.69;;;-4.03;63.52
49297;BME280;35163;48.878;18.040;2022-12-18T08:21:15;100254.13;;;-4.01;63.71
49297;BME280;35163;48.878;18.040;2022-12-18T08:23:47;100266.19;;;-3.97;63.89
49297;BME280;35163;48.878;18.040;2022-12-18T08:26:17;100267.31;;;-3.92;63.77
49297;BME280;35163;48.878;18.040;2022-12-18T08:28:44;100263.28;;;-3.88;63.75
49297;BME280;35163;48.878;18.040;2022-12-18T08:31:11;100263.41;;;-3.86;63.71
49297;BME280;35163;48.878;18.040;2022-12-18T08:33:38;100272.78;;;-3.84;63.55
49297;BME280;35163;48.878;18.040;2022-12-18T08:36:08;100269.75;;;-3.78;63.71
49297;BME280;35163;48.878;18.040;2022-12-18T08:38:35;100269.91;;;-3.75;63.49
49297;BME280;35163;48.878;18.040;2022-12-18T08:41:06;100271.94;;;-3.69;63.51
49297;BME280;35163;48.878;18.040;2022-12-18T08:43:33;100274.63;;;-3.66;63.65
49297;BME280;35163;48.878;18.040;2022-12-18T08:46:20;100274.06;;;-3.60;63.57
49297;BME280;35163;48.878;18.040;2022-12-18T08:48:48;100270.22;;;-3.54;63.61
49297;BME280;35163;48.878;18.040;2022-12-18T08:51:16;100270.50;;;-3.49;63.92
49297;BME280;35163;48.878;18.040;2022-12-18T08:53:44;100271.63;;;-3.44;63.62
49297;BME280;35163;48.878;18.040;2022-12-18T08:56:11;100281.13;;;-3.39;63.42
49297;BME280;35163;48.878;18.040;2022-12-18T08:58:41;100283.13;;;-3.34;63.66
49297;BME280;35163;48.878;18.040;2022-12-18T09:01:10;100277.41;;;-3.30;63.27
49297;BME280;35163;48.878;18.040;2022-12-18T09:03:37;100276.81;;;-3.25;63.10
49297;BME280;35163;48.878;18.040;2022-12-18T09:06:05;100281.28;;;-3.21;63.38
49297;BME280;35163;48.878;18.040;2022-12-18T09:08:35;100277.22;;;-3.18;62.94
49297;BME280;35163;48.878;18.040;2022-12-18T09:11:03;100282.56;;;-3.13;62.76
49297;BME280;35163;48.878;18.040;2022-12-18T09:13:30;100286.13;;;-3.09;62.63
49297;BME280;35163;48.878;18.040;2022-12-18T09:15:57;100284.59;;;-3.06;62.75
49297;BME280;35163;48.878;18.040;2022-12-18T09:18:24;100283.91;;;-3.03;62.75
49297;BME280;35163;48.878;18.040;2022-12-18T09:20:51;100282.34;;;-3.01;62.80
49297;BME280;35163;48.878;18.040;2022-12-18T09:23:22;100290.09;;;-2.98;63.08
49297;BME280;35163;48.878;18.040;2022-12-18T09:25:49;100284.38;;;-2.94;63.28
49297;BME280;35163;48.878;18.040;2022-12-18T09:28:17;100285.50;;;-2.88;63.39
49297;BME280;35163;48.878;18.040;2022-12-18T09:30:47;100283.16;;;-2.85;62.91
49297;BME280;35163;48.878;18.040;2022-12-18T09:33:17;100289.34;;;-2.80;63.10
49297;BME280;35163;48.878;18.040;2022-12-18T09:35:46;100280.22;;;-2.76;63.03
49297;BME280;35163;48.878;18.040;2022-12-18T09:38:16;100287.28;;;-2.71;62.87
49297;BME280;35163;48.878;18.040;2022-12-18T09:40:48;100297.72;;;-2.64;63.65
49297;BME280;35163;48.878;18.040;2022-12-18T09:46:08;100287.47;;;-2.51;63.12
49297;BME280;35163;48.878;18.040;2022-12-18T09:48:42;100285.22;;;-2.45;63.20
49297;BME280;35163;48.878;18.040;2022-12-18T09:51:17;100287.22;;;-2.39;62.70
49297;BME280;35163;48.878;18.040;2022-12-18T09:53:53;100290.84;;;-2.34;62.62
49297;BME280;35163;48.878;18.040;2022-12-18T09:56:22;100286.78;;;-2.30;62.92
49297;BME280;35163;48.878;18.040;2022-12-18T09:58:59;100287.97;;;-2.23;63.00
49297;BME280;35163;48.878;18.040;2022-12-18T10:01:27;100277.22;;;-2.19;62.42
49297;BME280;35163;48.878;18.040;2022-12-18T10:04:08;100286.66;;;-2.16;62.20
49297;BME280;35163;48.878;18.040;2022-12-18T10:06:45;100281.81;;;-2.12;62.47
49297;BME280;35163;48.878;18.040;2022-12-18T10:09:41;100276.13;;;-2.06;62.04
49297;BME280;35163;48.878;18.040;2022-12-18T10:14:53;100273.13;;;-1.99;62.20
49297;BME280;35163;48.878;18.040;2022-12-18T10:18:25;100270.81;;;-1.94;62.38
49297;BME280;35163;48.878;18.040;2022-12-18T10:20:44;100271.91;;;-1.89;61.99
49297;BME280;35163;48.878;18.040;2022-12-18T10:23:33;100271.34;;;-1.83;62.45
49297;BME280;35163;48.878;18.040;2022-12-18T10:26:08;100269.19;;;-1.75;62.46
49297;BME280;35163;48.878;18.040;2022-12-18T10:28:37;100262.56;;;-1.72;62.49
49297;BME280;35163;48.878;18.040;2022-12-18T10:31:23;100266.06;;;-1.69;61.31
49297;BME280;35163;48.878;18.040;2022-12-18T10:33:51;100268.09;;;-1.62;61.91
49297;BME280;35163;48.878;18.040;2022-12-18T10:36:20;100265.63;;;-1.61;60.87
49297;BME280;35163;48.878;18.040;2022-12-18T10:38:49;100253.97;;;-1.57;61.18
49297;BME280;35163;48.878;18.040;2022-12-18T10:43:47;100247.50;;;-1.50;61.00
49297;BME280;35163;48.878;18.040;2022-12-18T10:46:17;100239.25;;;-1.46;60.98
49297;BME280;35163;48.878;18.040;2022-12-18T10:51:30;100242.28;;;-1.35;61.33
49297;BME280;35163;48.878;18.040;2022-12-18T10:54:33;100245.03;;;-1.30;61.54
49297;BME280;35163;48.878;18.040;2022-12-18T10:57:16;100248.81;;;-1.22;61.38
49297;BME280;35163;48.878;18.040;2022-12-18T10:59:54;100245.66;;;-1.16;61.60
49297;BME280;35163;48.878;18.040;2022-12-18T11:02:34;100241.72;;;-1.10;60.66
49297;BME280;35163;48.878;18.040;2022-12-18T11:05:02;100231.72;;;-1.06;60.60
49297;BME280;35163;48.878;18.040;2022-12-18T11:07:49;100238.69;;;-1.02;60.84
49297;BME280;35163;48.878;18.040;2022-12-18T11:10:18;100238.03;;;-0.98;59.91
49297;BME280;35163;48.878;18.040;2022-12-18T11:12:45;100233.78;;;-0.98;59.47
49297;BME280;35163;48.878;18.040;2022-12-18T11:15:22;100229.72;;;-0.94;60.21
49297;BME280;35163;48.878;18.040;2022-12-18T11:17:51;100235.81;;;-0.90;60.53
49297;BME280;35163;48.878;18.040;2022-12-18T11:20:35;100237.69;;;-0.86;60.39
49297;BME280;35163;48.878;18.040;2022-12-18T11:23:05;100236.13;;;-0.82;60.39
49297;BME280;35163;48.878;18.040;2022-12-18T11:25:33;100230.34;;;-0.80;59.91
49297;BME280;35163;48.878;18.040;2022-12-18T11:28:25;100227.94;;;-0.77;60.13
49297;BME280;35163;48.878;18.040;2022-12-18T11:36:47;100231.72;;;-0.67;59.22
49297;BME280;35163;48.878;18.040;2022-12-18T11:39:45;100237.03;;;-0.62;58.95
49297;BME280;35163;48.878;18.040;2022-12-18T11:42:15;100232.03;;;-0.60;59.33
49297;BME280;35163;48.878;18.040;2022-12-18T11:44:55;100229.47;;;-0.60;58.95
49297;BME280;35163;48.878;18.040;2022-12-18T11:53:00;100234.81;;;-0.54;59.17
49297;BME280;35163;48.878;18.040;2022-12-18T11:56:12;100233.16;;;-0.54;58.50
49297;BME280;35163;48.878;18.040;2022-12-18T12:01:37;100241.78;;;-0.50;58.89
49297;BME280;35163;48.878;18.040;2022-12-18T12:06:59;100242.63;;;-0.50;58.36
49297;BME280;35163;48.878;18.040;2022-12-18T12:12:30;100241.22;;;-0.43;58.67
49297;BME280;35163;48.878;18.040;2022-12-18T12:17:56;100243.03;;;-0.40;58.31
49297;BME280;35163;48.878;18.040;2022-12-18T12:28:19;100244.88;;;-0.36;57.94
49297;BME280;35163;48.878;18.040;2022-12-18T12:31:16;100246.75;;;-0.32;58.34
49297;BME280;35163;48.878;18.040;2022-12-18T12:36:51;100252.78;;;-0.30;58.17
49297;BME280;35163;48.878;18.040;2022-12-18T12:39:27;100251.25;;;-0.26;58.87
49297;BME280;35163;48.878;18.040;2022-12-18T12:41:56;100240.31;;;-0.23;57.74
49297;BME280;35163;48.878;18.040;2022-12-18T12:44:53;100243.94;;;-0.18;57.38
49297;BME280;35163;48.878;18.040;2022-12-18T12:47:37;100246.59;;;-0.15;58.04
49297;BME280;35163;48.878;18.040;2022-12-18T12:50:13;100257.59;;;-0.16;57.07
49297;BME280;35163;48.878;18.040;2022-12-18T12:52:47;100256.09;;;-0.11;57.54
49297;BME280;35163;48.878;18.040;2022-12-18T12:55:21;100252.88;;;-0.07;57.44
49297;BME280;35163;48.878;18.040;2022-12-18T13:00:20;100247.94;;;-0.04;57.25
49297;BME280;35163;48.878;18.040;2022-12-18T13:05:42;100247.66;;;-0.10;55.88
49297;BME280;35163;48.878;18.040;2022-12-18T13:08:12;100254.28;;;-0.14;56.66
49297;BME280;35163;48.878;18.040;2022-12-18T13:10:49;100262.91;;;-0.10;57.92
49297;BME280;35163;48.878;18.040;2022-12-18T13:13:53;100254.56;;;-0.07;57.86
49297;BME280;35163;48.878;18.040;2022-12-18T13:16:25;100250.47;;;-0.04;57.32
49297;BME280;35163;48.878;18.040;2022-12-18T13:18:55;100242.91;;;-0.02;56.88
49297;BME280;35163;48.878;18.040;2022-12-18T13:21:28;100245.50;;;-0.01;57.34
49297;BME280;35163;48.878;18.040;2022-12-18T13:23:56;100243.03;;;0.01;56.61
49297;BME280;35163;48.878;18.040;2022-12-18T13:28:56;100235.44;;;0.03;56.67
49297;BME280;35163;48.878;18.040;2022-12-18T13:34:25;100237.31;;;0.07;57.12
49297;BME280;35163;48.878;18.040;2022-12-18T13:36:55;100239.06;;;0.08;56.80
49297;BME280;35163;48.878;18.040;2022-12-18T13:39:32;100240.00;;;0.10;56.53
49297;BME280;35163;48.878;18.040;2022-12-18T13:44:36;100244.25;;;0.11;56.19
49297;BME280;35163;48.878;18.040;2022-12-18T13:47:27;100252.81;;;0.13;56.56
49297;BME280;35163;48.878;18.040;2022-12-18T13:49:56;100248.56;;;0.12;56.67
49297;BME280;35163;48.878;18.040;2022-12-18T13:52:26;100252.81;;;0.13;55.99
49297;BME280;35163;48.878;18.040;2022-12-18T13:54:59;100247.75;;;0.13;57.08
49297;BME280;35163;48.878;18.040;2022-12-18T13:57:32;100249.34;;;0.11;56.33
49297;BME280;35163;48.878;18.040;2022-12-18T14:02:50;100258.59;;;0.09;57.11
49297;BME280;35163;48.878;18.040;2022-12-18T14:05:34;100256.91;;;0.09;56.47
49297;BME280;35163;48.878;18.040;2022-12-18T14:08:12;100251.78;;;0.08;56.79
49297;BME280;35163;48.878;18.040;2022-12-18T14:10:41;100256.03;;;0.09;57.07
49297;BME280;35163;48.878;18.040;2022-12-18T14:13:35;100262.78;;;0.07;56.47
49297;BME280;35163;48.878;18.040;2022-12-18T14:16:04;100264.38;;;0.05;56.72
49297;BME280;35163;48.878;18.040;2022-12-18T14:18:42;100269.47;;;0.05;57.67
49297;BME280;35163;48.878;18.040;2022-12-18T14:21:28;100267.75;;;0.05;57.55
49297;BME280;35163;48.878;18.040;2022-12-18T14:24:12;100271.19;;;0.06;57.17
49297;BME280;35163;48.878;18.040;2022-12-18T14:26:44;100265.22;;;0.05;57.55
49297;BME280;35163;48.878;18.040;2022-12-18T14:29:40;100270.41;;;0.07;57.83
49297;BME280;35163;48.878;18.040;2022-12-18T14:32:17;100272.00;;;0.05;57.90
49297;BME280;35163;48.878;18.040;2022-12-18T14:34:49;100282.19;;;0.05;58.61